sensor_id;sensor_type;location;lat;lon;timestamp;P1;durP1;ratioP1;P2;durP2;ratioP2
48743;SDS011;34538;48.836;9.174;2023-03-21T00:02:23;10.75;;;6.63;;
48743;SDS011;34538;48.836;9.174;2023-03-21T00:04:50;13.02;;;6.20;;
48743;SDS011;34538;48.836;9.174;2023-03-21T00:07:17;10.48;;;5.72;;
48743;SDS011;34538;48.836;9.174;2023-03-21T00:09:44;9.50;;;5.25;;
48743;SDS011;34538;48.836;9.174;2023-03-21T00:12:10;9.25;;;5.25;;
48743;SDS011;34538;48.836;9.174;2023-03-21T00:14:38;10.73;;;5.18;;
48743;SDS011;34538;48.836;9.174;2023-03-21T00:17:06;9.02;;;4.82;;
48743;SDS011;34538;48.836;9.174;2023-03-21T00:19:34;8.00;;;4.95;;
48743;SDS011;34538;48.836;9.174;2023-03-21T00:22:02;11.77;;;5.07;;
48743;SDS011;34538;48.836;9.174;2023-03-21T00:24:30;7.85;;;4.82;;
48743;SDS011;34538;48.836;9.174;2023-03-21T00:26:57;9.15;;;4.07;;
48743;SDS011;34538;48.836;9.174;2023-03-21T00:29:24;10.93;;;4.93;;
48743;SDS011;34538;48.836;9.174;2023-03-21T00:31:50;8.35;;;4.30;;
48743;SDS011;34538;48.836;9.174;2023-03-21T00:34:19;7.80;;;4.90;;
48743;SDS011;34538;48.836;9.174;2023-03-21T00:36:45;6.55;;;4.03;;
48743;SDS011;34538;48.836;9.174;2023-03-21T00:39:12;7.88;;;4.57;;
48743;SDS011;34538;48.836;9.174;2023-03-21T00:41:39;7.95;;;4.03;;
48743;SDS011;34538;48.836;9.174;2023-03-21T00:44:06;10.32;;;4.38;;
48743;SDS011;34538;48.836;9.174;2023-03-21T00:46:33;10.27;;;5.10;;
48743;SDS011;34538;48.836;9.174;2023-03-21T00:49:00;9.90;;;4.82;;
48743;SDS011;34538;48.836;9.174;2023-03-21T00:51:29;8.70;;;4.40;;
48743;SDS011;34538;48.836;9.174;2023-03-21T00:53:57;6.45;;;4.22;;
48743;SDS011;34538;48.836;9.174;2023-03-21T00:56:26;7.75;;;4.80;;
48743;SDS011;34538;48.836;9.174;2023-03-21T00:58:53;9.23;;;4.65;;
48743;SDS011;34538;48.836;9.174;2023-03-21T01:01:20;6.25;;;4.07;;
48743;SDS011;34538;48.836;9.174;2023-03-21T01:03:46;7.75;;;4.18;;
48743;SDS011;34538;48.836;9.174;2023-03-21T01:06:29;9.18;;;4.30;;
48743;SDS011;34538;48.836;9.174;2023-03-21T01:08:56;8.07;;;4.15;;
48743;SDS011;34538;48.836;9.174;2023-03-21T01:11:26;10.75;;;4.43;;
48743;SDS011;34538;48.836;9.174;2023-03-21T01:13:53;7.50;;;4.35;;
48743;SDS011;34538;48.836;9.174;2023-03-21T01:16:22;9.27;;;4.68;;
48743;SDS011;34538;48.836;9.174;2023-03-21T01:18:49;8.18;;;4.38;;
48743;SDS011;34538;48.836;9.174;2023-03-21T01:21:16;8.15;;;3.90;;
48743;SDS011;34538;48.836;9.174;2023-03-21T01:23:44;7.05;;;4.47;;
48743;SDS011;34538;48.836;9.174;2023-03-21T01:26:12;6.18;;;4.18;;
48743;SDS011;34538;48.836;9.174;2023-03-21T01:28:42;8.60;;;4.30;;
48743;SDS011;34538;48.836;9.174;2023-03-21T01:31:10;8.93;;;4.50;;
48743;SDS011;34538;48.836;9.174;2023-03-21T01:33:38;8.15;;;4.55;;
48743;SDS011;34538;48.836;9.174;2023-03-21T01:36:06;7.45;;;4.68;;
48743;SDS011;34538;48.836;9.174;2023-03-21T01:38:34;8.95;;;4.65;;
48743;SDS011;34538;48.836;9.174;2023-03-21T01:41:02;8.00;;;5.00;;
48743;SDS011;34538;48.836;9.174;2023-03-21T01:43:34;9.20;;;5.28;;
48743;SDS011;34538;48.836;9.174;2023-03-21T01:49:24;6.28;;;4.50;;
48743;SDS011;34538;48.836;9.174;2023-03-21T01:52:07;8.13;;;5.07;;
48743;SDS011;34538;48.836;9.174;2023-03-21T01:54:37;8.23;;;5.05;;
48743;SDS011;34538;48.836;9.174;2023-03-21T01:57:08;7.50;;;4.85;;
48743;SDS011;34538;48.836;9.174;2023-03-21T01:59:39;9.98;;;5.13;;
48743;SDS011;34538;48.836;9.174;2023-03-21T02:02:33;8.18;;;5.43;;
48743;SDS011;34538;48.836;9.174;2023-03-21T02:05:18;7.85;;;5.15;;
48743;SDS011;34538;48.836;9.174;2023-03-21T02:07:50;9.93;;;4.80;;
48743;SDS011;34538;48.836;9.174;2023-03-21T02:10:17;10.40;;;5.05;;
48743;SDS011;34538;48.836;9.174;2023-03-21T02:15:19;8.55;;;4.88;;
48743;SDS011;34538;48.836;9.174;2023-03-21T02:18:03;9.43;;;5.22;;
48743;SDS011;34538;48.836;9.174;2023-03-21T02:20:56;12.05;;;5.25;;
48743;SDS011;34538;48.836;9.174;2023-03-21T02:27:03;10.55;;;5.20;;
48743;SDS011;34538;48.836;9.174;2023-03-21T02:32:48;8.63;;;5.22;;
48743;SDS011;34538;48.836;9.174;2023-03-21T02:35:33;7.38;;;5.10;;
48743;SDS011;34538;48.836;9.174;2023-03-21T02:38:21;14.07;;;5.13;;
48743;SDS011;34538;48.836;9.174;2023-03-21T02:40:57;9.60;;;5.60;;
48743;SDS011;34538;48.836;9.174;2023-03-21T02:43:30;9.30;;;5.30;;
48743;SDS011;34538;48.836;9.174;2023-03-21T02:46:04;10.27;;;4.65;;
48743;SDS011;34538;48.836;9.174;2023-03-21T02:48:36;8.30;;;5.03;;
48743;SDS011;34538;48.836;9.174;2023-03-21T02:51:08;11.30;;;5.53;;
48743;SDS011;34538;48.836;9.174;2023-03-21T02:53:44;9.30;;;5.82;;
48743;SDS011;34538;48.836;9.174;2023-03-21T02:56:15;7.25;;;4.97;;
48743;SDS011;34538;48.836;9.174;2023-03-21T02:58:50;9.32;;;5.78;;
48743;SDS011;34538;48.836;9.174;2023-03-21T03:01:20;9.80;;;5.90;;
48743;SDS011;34538;48.836;9.174;2023-03-21T03:03:50;9.85;;;5.22;;
48743;SDS011;34538;48.836;9.174;2023-03-21T03:06:18;10.05;;;5.18;;
48743;SDS011;34538;48.836;9.174;2023-03-21T03:09:03;8.85;;;5.25;;
48743;SDS011;34538;48.836;9.174;2023-03-21T03:11:41;11.32;;;5.30;;
48743;SDS011;34538;48.836;9.174;2023-03-21T03:14:16;9.35;;;5.32;;
48743;SDS011;34538;48.836;9.174;2023-03-21T03:16:56;9.82;;;5.05;;
48743;SDS011;34538;48.836;9.174;2023-03-21T03:19:29;7.88;;;4.95;;
48743;SDS011;34538;48.836;9.174;2023-03-21T03:22:02;8.32;;;5.47;;
48743;SDS011;34538;48.836;9.174;2023-03-21T03:24:37;9.15;;;5.07;;
48743;SDS011;34538;48.836;9.174;2023-03-21T03:27:09;8.90;;;5.00;;
48743;SDS011;34538;48.836;9.174;2023-03-21T03:29:40;10.88;;;5.45;;
48743;SDS011;34538;48.836;9.174;2023-03-21T03:32:11;7.90;;;4.82;;
48743;SDS011;34538;48.836;9.174;2023-03-21T03:34:43;10.65;;;4.90;;
48743;SDS011;34538;48.836;9.174;2023-03-21T03:37:18;8.85;;;5.00;;
48743;SDS011;34538;48.836;9.174;2023-03-21T03:39:53;9.45;;;4.93;;
48743;SDS011;34538;48.836;9.174;2023-03-21T03:42:26;10.60;;;5.40;;
48743;SDS011;34538;48.836;9.174;2023-03-21T03:45:05;7.45;;;5.05;;
48743;SDS011;34538;48.836;9.174;2023-03-21T03:47:35;9.07;;;5.22;;
48743;SDS011;34538;48.836;9.174;2023-03-21T03:50:06;12.48;;;5.28;;
48743;SDS011;34538;48.836;9.174;2023-03-21T03:52:38;8.32;;;5.07;;
48743;SDS011;34538;48.836;9.174;2023-03-21T03:55:13;10.48;;;5.15;;
48743;SDS011;34538;48.836;9.174;2023-03-21T03:57:44;8.57;;;5.60;;
48743;SDS011;34538;48.836;9.174;2023-03-21T04:00:12;10.95;;;5.50;;
48743;SDS011;34538;48.836;9.174;2023-03-21T04:02:46;7.60;;;5.13;;
48743;SDS011;34538;48.836;9.174;2023-03-21T04:05:16;9.90;;;5.18;;
48743;SDS011;34538;48.836;9.174;2023-03-21T04:07:45;15.57;;;8.02;;
48743;SDS011;34538;48.836;9.174;2023-03-21T04:10:14;11.10;;;6.93;;
48743;SDS011;34538;48.836;9.174;2023-03-21T04:12:42;13.13;;;7.32;;
48743;SDS011;34538;48.836;9.174;2023-03-21T04:15:17;8.63;;;5.45;;
48743;SDS011;34538;48.836;9.174;2023-03-21T04:20:15;7.07;;;4.72;;
48743;SDS011;34538;48.836;9.174;2023-03-21T04:22:42;9.30;;;5.10;;
48743;SDS011;34538;48.836;9.174;2023-03-21T04:25:09;7.93;;;4.82;;
48743;SDS011;34538;48.836;9.174;2023-03-21T04:27:39;9.93;;;5.47;;
48743;SDS011;34538;48.836;9.174;2023-03-21T04:30:26;9.18;;;4.95;;
48743;SDS011;34538;48.836;9.174;2023-03-21T04:33:03;8.27;;;4.57;;
48743;SDS011;34538;48.836;9.174;2023-03-21T04:35:32;8.52;;;4.72;;
48743;SDS011;34538;48.836;9.174;2023-03-21T04:38:01;8.60;;;5.00;;
48743;SDS011;34538;48.836;9.174;2023-03-21T04:40:28;7.53;;;4.80;;
48743;SDS011;34538;48.836;9.174;2023-03-21T04:42:56;9.02;;;4.53;;
48743;SDS011;34538;48.836;9.174;2023-03-21T04:45:26;7.88;;;4.22;;
48743;SDS011;34538;48.836;9.174;2023-03-21T04:47:53;6.75;;;4.38;;
48743;SDS011;34538;48.836;9.174;2023-03-21T04:50:20;8.57;;;4.85;;
48743;SDS011;34538;48.836;9.174;2023-03-21T04:52:47;8.50;;;5.03;;
48743;SDS011;34538;48.836;9.174;2023-03-21T04:55:14;9.65;;;5.00;;
48743;SDS011;34538;48.836;9.174;2023-03-21T04:57:44;10.25;;;4.95;;
48743;SDS011;34538;48.836;9.174;2023-03-21T05:00:14;8.32;;;4.85;;
48743;SDS011;34538;48.836;9.174;2023-03-21T05:02:41;8.73;;;4.63;;
48743;SDS011;34538;48.836;9.174;2023-03-21T05:05:09;10.15;;;4.82;;
48743;SDS011;34538;48.836;9.174;2023-03-21T05:07:36;9.73;;;5.22;;
48743;SDS011;34538;48.836;9.174;2023-03-21T05:10:04;10.68;;;5.72;;
48743;SDS011;34538;48.836;9.174;2023-03-21T05:12:32;11.90;;;5.97;;
48743;SDS011;34538;48.836;9.174;2023-03-21T05:14:59;9.95;;;5.65;;
48743;SDS011;34538;48.836;9.174;2023-03-21T05:17:27;9.07;;;5.13;;
48743;SDS011;34538;48.836;9.174;2023-03-21T05:19:56;8.27;;;5.15;;
48743;SDS011;34538;48.836;9.174;2023-03-21T05:22:23;11.55;;;5.45;;
48743;SDS011;34538;48.836;9.174;2023-03-21T05:24:53;8.65;;;5.10;;
48743;SDS011;34538;48.836;9.174;2023-03-21T05:27:49;7.65;;;4.70;;
48743;SDS011;34538;48.836;9.174;2023-03-21T05:30:22;8.05;;;4.68;;
48743;SDS011;34538;48.836;9.174;2023-03-21T05:32:55;10.18;;;5.15;;
48743;SDS011;34538;48.836;9.174;2023-03-21T05:35:22;12.48;;;5.47;;
48743;SDS011;34538;48.836;9.174;2023-03-21T05:37:50;8.73;;;4.88;;
48743;SDS011;34538;48.836;9.174;2023-03-21T05:40:19;9.55;;;5.20;;
48743;SDS011;34538;48.836;9.174;2023-03-21T05:42:47;9.32;;;5.50;;
48743;SDS011;34538;48.836;9.174;2023-03-21T05:45:18;10.32;;;5.50;;
48743;SDS011;34538;48.836;9.174;2023-03-21T05:47:48;7.88;;;5.20;;
48743;SDS011;34538;48.836;9.174;2023-03-21T05:50:16;8.13;;;5.20;;
48743;SDS011;34538;48.836;9.174;2023-03-21T05:52:52;12.23;;;5.72;;
48743;SDS011;34538;48.836;9.174;2023-03-21T05:55:19;10.63;;;6.10;;
48743;SDS011;34538;48.836;9.174;2023-03-21T05:57:46;8.88;;;4.80;;
48743;SDS011;34538;48.836;9.174;2023-03-21T06:00:22;8.60;;;5.15;;
48743;SDS011;34538;48.836;9.174;2023-03-21T06:03:08;8.93;;;4.90;;
48743;SDS011;34538;48.836;9.174;2023-03-21T06:05:56;10.30;;;5.72;;
48743;SDS011;34538;48.836;9.174;2023-03-21T06:08:27;9.93;;;5.22;;
48743;SDS011;34538;48.836;9.174;2023-03-21T06:10:54;8.98;;;5.28;;
48743;SDS011;34538;48.836;9.174;2023-03-21T06:13:21;10.95;;;5.47;;
48743;SDS011;34538;48.836;9.174;2023-03-21T06:15:48;7.22;;;4.75;;
48743;SDS011;34538;48.836;9.174;2023-03-21T06:18:19;7.32;;;4.93;;
48743;SDS011;34538;48.836;9.174;2023-03-21T06:20:55;10.23;;;5.78;;
48743;SDS011;34538;48.836;9.174;2023-03-21T06:23:23;9.68;;;5.70;;
48743;SDS011;34538;48.836;9.174;2023-03-21T06:25:50;8.95;;;5.13;;
48743;SDS011;34538;48.836;9.174;2023-03-21T06:28:17;9.07;;;5.32;;
48743;SDS011;34538;48.836;9.174;2023-03-21T06:30:43;8.60;;;5.57;;
48743;SDS011;34538;48.836;9.174;2023-03-21T06:33:23;8.25;;;5.13;;
48743;SDS011;34538;48.836;9.174;2023-03-21T06:35:51;7.85;;;4.75;;
48743;SDS011;34538;48.836;9.174;2023-03-21T06:38:19;10.10;;;5.20;;
48743;SDS011;34538;48.836;9.174;2023-03-21T06:40:47;10.85;;;5.55;;
48743;SDS011;34538;48.836;9.174;2023-03-21T06:43:14;12.10;;;4.78;;
48743;SDS011;34538;48.836;9.174;2023-03-21T06:45:42;8.63;;;4.82;;
48743;SDS011;34538;48.836;9.174;2023-03-21T06:48:10;8.68;;;4.40;;
48743;SDS011;34538;48.836;9.174;2023-03-21T06:50:55;9.90;;;4.32;;
48743;SDS011;34538;48.836;9.174;2023-03-21T06:53:26;5.55;;;3.72;;
48743;SDS011;34538;48.836;9.174;2023-03-21T06:56:13;6.60;;;3.30;;
48743;SDS011;34538;48.836;9.174;2023-03-21T06:58:41;6.07;;;3.10;;
48743;SDS011;34538;48.836;9.174;2023-03-21T07:01:16;6.35;;;2.90;;
48743;SDS011;34538;48.836;9.174;2023-03-21T07:03:53;8.30;;;3.35;;
48743;SDS011;34538;48.836;9.174;2023-03-21T07:06:22;4.75;;;2.60;;
48743;SDS011;34538;48.836;9.174;2023-03-21T07:08:52;5.25;;;2.53;;
48743;SDS011;34538;48.836;9.174;2023-03-21T07:11:21;5.45;;;2.90;;
48743;SDS011;34538;48.836;9.174;2023-03-21T07:13:49;5.38;;;2.88;;
48743;SDS011;34538;48.836;9.174;2023-03-21T07:16:16;4.40;;;2.78;;
48743;SDS011;34538;48.836;9.174;2023-03-21T07:18:46;8.60;;;3.58;;
48743;SDS011;34538;48.836;9.174;2023-03-21T07:21:13;9.52;;;3.72;;
48743;SDS011;34538;48.836;9.174;2023-03-21T07:23:40;9.18;;;3.60;;
48743;SDS011;34538;48.836;9.174;2023-03-21T07:26:09;7.28;;;3.60;;
48743;SDS011;34538;48.836;9.174;2023-03-21T07:28:37;6.07;;;3.42;;
48743;SDS011;34538;48.836;9.174;2023-03-21T07:31:04;7.72;;;3.38;;
48743;SDS011;34538;48.836;9.174;2023-03-21T07:33:33;7.57;;;3.08;;
48743;SDS011;34538;48.836;9.174;2023-03-21T07:36:01;5.72;;;3.17;;
48743;SDS011;34538;48.836;9.174;2023-03-21T07:38:28;6.80;;;3.60;;
48743;SDS011;34538;48.836;9.174;2023-03-21T07:40:57;6.63;;;3.30;;
48743;SDS011;34538;48.836;9.174;2023-03-21T07:43:30;11.05;;;3.08;;
48743;SDS011;34538;48.836;9.174;2023-03-21T07:45:57;4.75;;;3.10;;
48743;SDS011;34538;48.836;9.174;2023-03-21T07:48:25;7.47;;;3.10;;
48743;SDS011;34538;48.836;9.174;2023-03-21T07:50:52;6.68;;;2.78;;
48743;SDS011;34538;48.836;9.174;2023-03-21T07:53:19;6.95;;;3.20;;
48743;SDS011;34538;48.836;9.174;2023-03-21T07:55:48;4.72;;;2.63;;
48743;SDS011;34538;48.836;9.174;2023-03-21T07:58:15;5.95;;;3.08;;
48743;SDS011;34538;48.836;9.174;2023-03-21T08:00:44;7.72;;;3.47;;
48743;SDS011;34538;48.836;9.174;2023-03-21T08:03:10;6.70;;;3.10;;
48743;SDS011;34538;48.836;9.174;2023-03-21T08:05:37;5.35;;;3.03;;
48743;SDS011;34538;48.836;9.174;2023-03-21T08:08:05;4.55;;;2.70;;
48743;SDS011;34538;48.836;9.174;2023-03-21T08:10:32;4.93;;;3.22;;
48743;SDS011;34538;48.836;9.174;2023-03-21T08:13:00;4.90;;;2.78;;
48743;SDS011;34538;48.836;9.174;2023-03-21T08:15:26;5.13;;;3.15;;
48743;SDS011;34538;48.836;9.174;2023-03-21T08:17:55;4.85;;;2.85;;
48743;SDS011;34538;48.836;9.174;2023-03-21T08:20:24;5.45;;;2.92;;
48743;SDS011;34538;48.836;9.174;2023-03-21T08:22:52;4.30;;;2.88;;
48743;SDS011;34538;48.836;9.174;2023-03-21T08:25:19;6.90;;;3.47;;
48743;SDS011;34538;48.836;9.174;2023-03-21T08:27:48;6.15;;;3.60;;
48743;SDS011;34538;48.836;9.174;2023-03-21T08:30:17;5.22;;;2.88;;
48743;SDS011;34538;48.836;9.174;2023-03-21T08:32:45;3.50;;;2.22;;
48743;SDS011;34538;48.836;9.174;2023-03-21T08:35:15;4.13;;;2.55;;
48743;SDS011;34538;48.836;9.174;2023-03-21T08:37:43;8.90;;;3.72;;
48743;SDS011;34538;48.836;9.174;2023-03-21T08:40:11;7.65;;;3.63;;
48743;SDS011;34538;48.836;9.174;2023-03-21T08:42:40;5.57;;;3.20;;
48743;SDS011;34538;48.836;9.174;2023-03-21T08:45:10;6.15;;;3.17;;
48743;SDS011;34538;48.836;9.174;2023-03-21T08:47:38;6.35;;;2.92;;
48743;SDS011;34538;48.836;9.174;2023-03-21T08:50:06;6.25;;;2.70;;
48743;SDS011;34538;48.836;9.174;2023-03-21T08:52:42;7.43;;;3.25;;
48743;SDS011;34538;48.836;9.174;2023-03-21T08:55:09;8.35;;;2.85;;
48743;SDS011;34538;48.836;9.174;2023-03-21T08:57:37;4.25;;;2.30;;
48743;SDS011;34538;48.836;9.174;2023-03-21T09:00:05;5.32;;;2.60;;
48743;SDS011;34538;48.836;9.174;2023-03-21T09:02:37;3.15;;;2.30;;
48743;SDS011;34538;48.836;9.174;2023-03-21T09:05:04;5.75;;;2.92;;
48743;SDS011;34538;48.836;9.174;2023-03-21T09:07:32;5.43;;;2.60;;
48743;SDS011;34538;48.836;9.174;2023-03-21T09:10:01;5.95;;;2.58;;
48743;SDS011;34538;48.836;9.174;2023-03-21T09:12:29;5.50;;;2.30;;
48743;SDS011;34538;48.836;9.174;2023-03-21T09:14:56;5.25;;;2.10;;
48743;SDS011;34538;48.836;9.174;2023-03-21T09:17:23;4.65;;;2.47;;
48743;SDS011;34538;48.836;9.174;2023-03-21T09:19:49;3.90;;;2.20;;
48743;SDS011;34538;48.836;9.174;2023-03-21T09:22:17;3.58;;;2.17;;
48743;SDS011;34538;48.836;9.174;2023-03-21T09:24:47;3.33;;;1.95;;
48743;SDS011;34538;48.836;9.174;2023-03-21T09:27:16;4.78;;;2.30;;
48743;SDS011;34538;48.836;9.174;2023-03-21T09:29:45;9.23;;;2.75;;
48743;SDS011;34538;48.836;9.174;2023-03-21T09:32:12;4.03;;;2.20;;
48743;SDS011;34538;48.836;9.174;2023-03-21T09:34:39;5.10;;;2.08;;
48743;SDS011;34538;48.836;9.174;2023-03-21T09:37:06;3.63;;;2.00;;
48743;SDS011;34538;48.836;9.174;2023-03-21T09:42:09;4.13;;;2.65;;
48743;SDS011;34538;48.836;9.174;2023-03-21T09:44:50;3.65;;;2.28;;
48743;SDS011;34538;48.836;9.174;2023-03-21T09:47:26;3.70;;;1.85;;
48743;SDS011;34538;48.836;9.174;2023-03-21T09:49:57;4.80;;;2.40;;
48743;SDS011;34538;48.836;9.174;2023-03-21T09:52:29;5.03;;;2.42;;
48743;SDS011;34538;48.836;9.174;2023-03-21T09:54:58;2.45;;;1.70;;
48743;SDS011;34538;48.836;9.174;2023-03-21T09:57:28;2.47;;;1.52;;
48743;SDS011;34538;48.836;9.174;2023-03-21T09:59:59;6.00;;;2.63;;
48743;SDS011;34538;48.836;9.174;2023-03-21T10:02:37;2.45;;;1.63;;
48743;SDS011;34538;48.836;9.174;2023-03-21T10:05:12;4.60;;;1.75;;
48743;SDS011;34538;48.836;9.174;2023-03-21T10:07:45;3.88;;;2.00;;
48743;SDS011;34538;48.836;9.174;2023-03-21T10:10:17;2.30;;;1.50;;
48743;SDS011;34538;48.836;9.174;2023-03-21T10:12:48;3.15;;;1.60;;
48743;SDS011;34538;48.836;9.174;2023-03-21T10:15:18;3.33;;;1.75;;
48743;SDS011;34538;48.836;9.174;2023-03-21T10:17:48;2.47;;;1.50;;
48743;SDS011;34538;48.836;9.174;2023-03-21T10:20:21;2.95;;;1.33;;
48743;SDS011;34538;48.836;9.174;2023-03-21T10:22:49;3.17;;;1.50;;
48743;SDS011;34538;48.836;9.174;2023-03-21T10:25:18;5.78;;;1.60;;
48743;SDS011;34538;48.836;9.174;2023-03-21T10:27:51;2.78;;;1.60;;
48743;SDS011;34538;48.836;9.174;2023-03-21T10:30:20;2.88;;;1.02;;
48743;SDS011;34538;48.836;9.174;2023-03-21T10:32:54;2.58;;;1.30;;
48743;SDS011;34538;48.836;9.174;2023-03-21T10:35:23;5.80;;;1.88;;
48743;SDS011;34538;48.836;9.174;2023-03-21T10:37:50;3.75;;;1.52;;
48743;SDS011;34538;48.836;9.174;2023-03-21T10:40:17;3.53;;;1.75;;
48743;SDS011;34538;48.836;9.174;2023-03-21T10:42:45;4.50;;;1.90;;
48743;SDS011;34538;48.836;9.174;2023-03-21T10:45:17;3.75;;;1.30;;
48743;SDS011;34538;48.836;9.174;2023-03-21T10:47:46;3.38;;;1.20;;
48743;SDS011;34538;48.836;9.174;2023-03-21T10:50:15;2.75;;;1.40;;
48743;SDS011;34538;48.836;9.174;2023-03-21T10:52:50;4.82;;;1.75;;
48743;SDS011;34538;48.836;9.174;2023-03-21T10:55:24;1.98;;;1.23;;
48743;SDS011;34538;48.836;9.174;2023-03-21T10:57:54;1.65;;;1.20;;
48743;SDS011;34538;48.836;9.174;2023-03-21T11:00:26;4.17;;;1.40;;
48743;SDS011;34538;48.836;9.174;2023-03-21T11:02:55;2.15;;;1.17;;
48743;SDS011;34538;48.836;9.174;2023-03-21T11:05:24;3.42;;;1.50;;
48743;SDS011;34538;48.836;9.174;2023-03-21T11:07:58;8.00;;;2.85;;
48743;SDS011;34538;48.836;9.174;2023-03-21T11:10:28;5.50;;;2.63;;
48743;SDS011;34538;48.836;9.174;2023-03-21T11:12:57;5.10;;;2.35;;
48743;SDS011;34538;48.836;9.174;2023-03-21T11:15:30;4.72;;;2.45;;
48743;SDS011;34538;48.836;9.174;2023-03-21T11:18:11;4.63;;;2.30;;
48743;SDS011;34538;48.836;9.174;2023-03-21T11:20:41;4.05;;;2.20;;
48743;SDS011;34538;48.836;9.174;2023-03-21T11:23:14;3.40;;;2.15;;
48743;SDS011;34538;48.836;9.174;2023-03-21T11:25:41;4.32;;;2.55;;
48743;SDS011;34538;48.836;9.174;2023-03-21T11:28:10;5.15;;;2.22;;
48743;SDS011;34538;48.836;9.174;2023-03-21T11:30:49;4.45;;;2.25;;
48743;SDS011;34538;48.836;9.174;2023-03-21T11:33:18;6.28;;;3.20;;
48743;SDS011;34538;48.836;9.174;2023-03-21T11:35:57;6.47;;;2.60;;
48743;SDS011;34538;48.836;9.174;2023-03-21T11:38:26;7.18;;;2.67;;
48743;SDS011;34538;48.836;9.174;2023-03-21T11:40:57;4.47;;;2.70;;
48743;SDS011;34538;48.836;9.174;2023-03-21T11:43:27;6.47;;;4.38;;
48743;SDS011;34538;48.836;9.174;2023-03-21T11:45:58;3.75;;;2.40;;
48743;SDS011;34538;48.836;9.174;2023-03-21T11:48:26;5.23;;;2.80;;
48743;SDS011;34538;48.836;9.174;2023-03-21T11:50:56;4.00;;;2.30;;
48743;SDS011;34538;48.836;9.174;2023-03-21T11:53:31;5.20;;;2.45;;
48743;SDS011;34538;48.836;9.174;2023-03-21T11:56:09;5.32;;;2.30;;
48743;SDS011;34538;48.836;9.174;2023-03-21T11:58:51;3.97;;;2.22;;
48743;SDS011;34538;48.836;9.174;2023-03-21T12:01:36;5.32;;;2.30;;
48743;SDS011;34538;48.836;9.174;2023-03-21T12:04:19;5.57;;;2.30;;
48743;SDS011;34538;48.836;9.174;2023-03-21T12:06:57;4.18;;;2.28;;
48743;SDS011;34538;48.836;9.174;2023-03-21T12:09:33;3.92;;;2.20;;
48743;SDS011;34538;48.836;9.174;2023-03-21T12:12:09;3.78;;;2.13;;
48743;SDS011;34538;48.836;9.174;2023-03-21T12:14:46;5.60;;;2.08;;
48743;SDS011;34538;48.836;9.174;2023-03-21T12:17:26;3.88;;;2.20;;
48743;SDS011;34538;48.836;9.174;2023-03-21T12:20:13;3.20;;;2.00;;
48743;SDS011;34538;48.836;9.174;2023-03-21T12:22:51;4.20;;;1.90;;
48743;SDS011;34538;48.836;9.174;2023-03-21T12:25:30;3.90;;;2.22;;
48743;SDS011;34538;48.836;9.174;2023-03-21T12:28:00;3.05;;;1.58;;
48743;SDS011;34538;48.836;9.174;2023-03-21T12:30:38;4.97;;;2.03;;
48743;SDS011;34538;48.836;9.174;2023-03-21T12:33:20;3.63;;;1.95;;
48743;SDS011;34538;48.836;9.174;2023-03-21T12:36:07;6.28;;;2.00;;
48743;SDS011;34538;48.836;9.174;2023-03-21T12:38:47;4.88;;;2.20;;
48743;SDS011;34538;48.836;9.174;2023-03-21T12:41:22;2.45;;;1.40;;
48743;SDS011;34538;48.836;9.174;2023-03-21T12:43:52;3.22;;;1.67;;
48743;SDS011;34538;48.836;9.174;2023-03-21T12:46:25;2.65;;;1.70;;
48743;SDS011;34538;48.836;9.174;2023-03-21T12:48:59;3.85;;;1.73;;
48743;SDS011;34538;48.836;9.174;2023-03-21T12:51:28;3.88;;;1.83;;
48743;SDS011;34538;48.836;9.174;2023-03-21T12:54:08;4.10;;;2.05;;
48743;SDS011;34538;48.836;9.174;2023-03-21T12:56:43;2.47;;;1.80;;
48743;SDS011;34538;48.836;9.174;2023-03-21T12:59:18;2.75;;;1.33;;
48743;SDS011;34538;48.836;9.174;2023-03-21T13:01:54;3.03;;;1.90;;
48743;SDS011;34538;48.836;9.174;2023-03-21T13:06:58;2.50;;;1.35;;
48743;SDS011;34538;48.836;9.174;2023-03-21T13:09:28;1.67;;;1.17;;
48743;SDS011;34538;48.836;9.174;2023-03-21T13:12:00;3.38;;;1.30;;
48743;SDS011;34538;48.836;9.174;2023-03-21T13:14:33;3.35;;;1.10;;
48743;SDS011;34538;48.836;9.174;2023-03-21T13:17:05;3.05;;;1.48;;
48743;SDS011;34538;48.836;9.174;2023-03-21T13:19:42;2.20;;;1.30;;
48743;SDS011;34538;48.836;9.174;2023-03-21T13:22:17;2.30;;;1.38;;
48743;SDS011;34538;48.836;9.174;2023-03-21T13:24:49;2.53;;;1.35;;
48743;SDS011;34538;48.836;9.174;2023-03-21T13:27:25;1.92;;;1.23;;
48743;SDS011;34538;48.836;9.174;2023-03-21T13:29:57;2.10;;;1.30;;
48743;SDS011;34538;48.836;9.174;2023-03-21T13:32:27;2.45;;;1.40;;
48743;SDS011;34538;48.836;9.174;2023-03-21T13:34:58;2.90;;;1.48;;
48743;SDS011;34538;48.836;9.174;2023-03-21T13:37:29;1.55;;;1.30;;
48743;SDS011;34538;48.836;9.174;2023-03-21T13:39:59;2.80;;;1.20;;
48743;SDS011;34538;48.836;9.174;2023-03-21T13:42:33;4.13;;;1.48;;
48743;SDS011;34538;48.836;9.174;2023-03-21T13:45:01;2.65;;;1.45;;
48743;SDS011;34538;48.836;9.174;2023-03-21T13:47:37;4.32;;;1.73;;
48743;SDS011;34538;48.836;9.174;2023-03-21T13:53:09;3.95;;;1.80;;
48743;SDS011;34538;48.836;9.174;2023-03-21T13:55:58;5.22;;;1.83;;
48743;SDS011;34538;48.836;9.174;2023-03-21T13:58:33;4.10;;;2.53;;
48743;SDS011;34538;48.836;9.174;2023-03-21T14:01:15;5.32;;;2.30;;
48743;SDS011;34538;48.836;9.174;2023-03-21T14:03:55;4.82;;;1.92;;
48743;SDS011;34538;48.836;9.174;2023-03-21T14:06:30;5.18;;;2.50;;
48743;SDS011;34538;48.836;9.174;2023-03-21T14:09:00;6.03;;;2.42;;
48743;SDS011;34538;48.836;9.174;2023-03-21T14:11:28;6.32;;;2.47;;
48743;SDS011;34538;48.836;9.174;2023-03-21T14:13:59;5.43;;;2.15;;
48743;SDS011;34538;48.836;9.174;2023-03-21T14:16:27;4.60;;;2.13;;
48743;SDS011;34538;48.836;9.174;2023-03-21T14:18:56;4.75;;;2.10;;
48743;SDS011;34538;48.836;9.174;2023-03-21T14:21:27;2.63;;;1.75;;
48743;SDS011;34538;48.836;9.174;2023-03-21T14:23:58;4.13;;;2.00;;
48743;SDS011;34538;48.836;9.174;2023-03-21T14:26:28;3.03;;;1.70;;
48743;SDS011;34538;48.836;9.174;2023-03-21T14:28:57;4.80;;;1.90;;
48743;SDS011;34538;48.836;9.174;2023-03-21T14:31:24;4.50;;;2.13;;
48743;SDS011;34538;48.836;9.174;2023-03-21T14:33:52;3.92;;;1.70;;
48743;SDS011;34538;48.836;9.174;2023-03-21T14:36:23;3.40;;;1.45;;
48743;SDS011;34538;48.836;9.174;2023-03-21T14:38:55;2.83;;;1.60;;
48743;SDS011;34538;48.836;9.174;2023-03-21T14:41:28;4.45;;;1.80;;
48743;SDS011;34538;48.836;9.174;2023-03-21T14:43:59;5.65;;;2.17;;
48743;SDS011;34538;48.836;9.174;2023-03-21T14:46:27;6.60;;;1.85;;
48743;SDS011;34538;48.836;9.174;2023-03-21T14:48:54;2.85;;;1.65;;
48743;SDS011;34538;48.836;9.174;2023-03-21T14:54:04;2.20;;;1.30;;
48743;SDS011;34538;48.836;9.174;2023-03-21T14:56:37;3.33;;;1.48;;
48743;SDS011;34538;48.836;9.174;2023-03-21T14:59:04;2.90;;;1.40;;
48743;SDS011;34538;48.836;9.174;2023-03-21T15:01:33;3.03;;;1.58;;
48743;SDS011;34538;48.836;9.174;2023-03-21T15:04:02;4.55;;;1.98;;
48743;SDS011;34538;48.836;9.174;2023-03-21T15:06:31;3.88;;;1.83;;
48743;SDS011;34538;48.836;9.174;2023-03-21T15:09:01;3.47;;;1.55;;
48743;SDS011;34538;48.836;9.174;2023-03-21T15:11:31;3.25;;;1.63;;
48743;SDS011;34538;48.836;9.174;2023-03-21T15:14:00;3.78;;;1.83;;
48743;SDS011;34538;48.836;9.174;2023-03-21T15:16:30;3.95;;;1.85;;
48743;SDS011;34538;48.836;9.174;2023-03-21T15:18:58;4.35;;;1.75;;
48743;SDS011;34538;48.836;9.174;2023-03-21T15:21:27;7.28;;;2.08;;
48743;SDS011;34538;48.836;9.174;2023-03-21T15:23:57;2.22;;;1.70;;
48743;SDS011;34538;48.836;9.174;2023-03-21T15:26:28;4.10;;;1.80;;
48743;SDS011;34538;48.836;9.174;2023-03-21T15:28:57;2.75;;;1.85;;
48743;SDS011;34538;48.836;9.174;2023-03-21T15:31:27;5.25;;;2.05;;
48743;SDS011;34538;48.836;9.174;2023-03-21T15:33:56;4.80;;;2.35;;
48743;SDS011;34538;48.836;9.174;2023-03-21T15:36:24;7.38;;;2.03;;